Schedule Details

Flight Number: CPX771
Departure: Liège Airport (EBLG) at N/A
Arrival: Tallinn Airport (EETN) at N/A
Route: LNO5E LNO M170 NVO UZ706 PIXID GESKA P605 MALIV M611 KOLJA M611 LONSA


Current Weather Information
EBLG 180620Z 15008KT 140V200 CAVOK 07/M02 Q1019 NOSIG
EETN 180650Z 19006KT 160V220 CAVOK M02/M05 Q1022 R08/19//95 NOSIG

Route Map